createdAt,value
2023-07-08T00:00:49.641Z,0.00
2023-07-08T00:01:49.955Z,0.00
2023-07-08T00:02:50.126Z,0.00
2023-07-08T00:03:50.347Z,0.00
2023-07-08T00:04:50.515Z,0.00
2023-07-08T00:05:50.734Z,0.00
2023-07-08T00:06:50.918Z,0.00
2023-07-08T00:07:51.115Z,0.00
2023-07-08T00:08:51.322Z,0.00
2023-07-08T00:09:51.502Z,0.00
2023-07-08T00:10:51.720Z,0.00
2023-07-08T00:11:51.920Z,0.00
2023-07-08T00:12:52.116Z,0.00
2023-07-08T00:13:52.373Z,0.00
2023-07-08T00:14:52.569Z,0.00
2023-07-08T00:15:52.780Z,0.00
2023-07-08T00:16:53.065Z,0.00
2023-07-08T00:17:53.207Z,0.00
2023-07-08T00:18:53.392Z,0.00
2023-07-08T00:19:53.598Z,0.00
2023-07-08T00:20:53.808Z,0.00
2023-07-08T00:21:54.030Z,0.00
2023-07-08T00:22:54.207Z,0.00
2023-07-08T00:23:54.424Z,0.00
2023-07-08T00:24:54.624Z,0.00
2023-07-08T00:25:54.851Z,0.00
2023-07-08T00:26:55.054Z,0.00
2023-07-08T00:27:55.262Z,0.00
2023-07-08T00:28:55.496Z,0.00
2023-07-08T00:29:55.699Z,0.00
2023-07-08T00:30:55.938Z,0.00
2023-07-08T00:31:56.132Z,0.00
2023-07-08T00:32:56.380Z,0.00
2023-07-08T00:33:57.485Z,0.00
2023-07-08T00:34:56.854Z,0.00
2023-07-08T00:35:57.183Z,0.00
2023-07-08T00:36:57.367Z,0.00
2023-07-08T00:37:57.697Z,0.00
2023-07-08T00:38:57.901Z,0.00
2023-07-08T00:39:58.211Z,0.00
2023-07-08T00:40:58.674Z,0.00
2023-07-08T00:41:58.618Z,0.00
2023-07-08T00:42:58.822Z,0.00
2023-07-08T00:43:59.023Z,0.00
2023-07-08T00:44:59.206Z,0.00
2023-07-08T00:46:03.157Z,0.00
2023-07-08T00:46:59.895Z,0.00
2023-07-08T00:48:00.077Z,0.00
2023-07-08T00:49:00.268Z,0.00
2023-07-08T00:50:00.592Z,0.00
2023-07-08T00:51:00.992Z,0.00
2023-07-08T00:52:01.072Z,0.00
2023-07-08T00:53:01.270Z,0.00
2023-07-08T00:54:01.487Z,0.00
2023-07-08T00:55:01.665Z,0.00
2023-07-08T00:56:01.986Z,0.00
2023-07-08T00:57:02.216Z,0.00
2023-07-08T00:58:02.414Z,0.00
2023-07-08T00:59:02.607Z,0.00
2023-07-08T01:00:02.826Z,0.00
2023-07-08T01:01:03.033Z,0.00
2023-07-08T01:02:03.412Z,0.00
2023-07-08T01:03:03.496Z,0.00
2023-07-08T01:04:03.725Z,0.00
2023-07-08T01:05:03.920Z,0.00
2023-07-08T01:06:04.143Z,0.00
2023-07-08T01:07:04.376Z,0.00
2023-07-08T01:08:04.576Z,0.00
2023-07-08T01:09:04.756Z,0.00
2023-07-08T01:10:05.080Z,0.00
2023-07-08T01:11:05.598Z,0.00
2023-07-08T01:12:05.516Z,0.00
2023-07-08T01:13:05.713Z,0.00
2023-07-08T01:14:06.124Z,0.00
2023-07-08T01:15:06.244Z,0.00
2023-07-08T01:16:06.520Z,0.00
2023-07-08T01:17:06.716Z,0.00
2023-07-08T01:18:06.951Z,0.00
2023-07-08T01:19:07.150Z,0.00
2023-07-08T01:20:07.353Z,0.00
2023-07-08T01:21:07.608Z,0.00
2023-07-08T01:22:07.778Z,0.00
2023-07-08T01:23:07.961Z,0.00
2023-07-08T01:24:08.276Z,0.00
2023-07-08T01:25:08.476Z,0.00
2023-07-08T01:26:08.799Z,0.00
2023-07-08T01:27:09.018Z,0.00
2023-07-08T01:28:09.243Z,0.00
2023-07-08T01:29:09.415Z,0.00
2023-07-08T01:30:09.715Z,0.00
2023-07-08T01:31:09.949Z,0.00
2023-07-08T01:32:10.190Z,0.00
2023-07-08T01:33:10.376Z,0.00
2023-07-08T01:34:10.591Z,0.00
2023-07-08T01:35:10.785Z,0.00
2023-07-08T01:36:11.118Z,0.00
2023-07-08T01:37:11.305Z,0.00
2023-07-08T01:38:11.519Z,0.00
2023-07-08T01:39:11.706Z,0.00
2023-07-08T01:40:11.904Z,0.00
2023-07-08T01:41:12.131Z,0.00
2023-07-08T01:42:12.335Z,0.00
2023-07-08T01:43:12.537Z,0.00
2023-07-08T01:44:12.758Z,0.00
2023-07-08T01:45:12.956Z,0.00
2023-07-08T01:46:13.208Z,0.00
2023-07-08T01:47:13.399Z,0.00
2023-07-08T01:48:13.613Z,0.00
2023-07-08T01:49:13.799Z,0.00
2023-07-08T01:50:14.110Z,0.00
2023-07-08T01:51:14.318Z,0.00
2023-07-08T01:52:14.503Z,0.00
2023-07-08T01:53:14.690Z,0.00
2023-07-08T01:54:15.007Z,0.00
2023-07-08T01:55:15.204Z,0.00
2023-07-08T01:56:15.525Z,0.00
2023-07-08T01:57:15.713Z,0.00
2023-07-08T01:58:15.924Z,0.00
2023-07-08T01:59:16.117Z,0.00
2023-07-08T02:00:16.415Z,0.00
2023-07-08T02:01:16.771Z,0.00
2023-07-08T02:02:16.951Z,0.00
2023-07-08T02:03:17.190Z,0.00
2023-07-08T02:04:17.420Z,0.00
2023-07-08T02:05:17.776Z,0.00
2023-07-08T02:06:17.857Z,0.00
2023-07-08T02:07:18.088Z,0.00
2023-07-08T02:08:18.337Z,0.00
2023-07-08T02:09:18.539Z,0.00
2023-07-08T02:10:18.759Z,0.00
2023-07-08T02:11:18.987Z,0.00
2023-07-08T02:12:19.191Z,0.00
2023-07-08T02:13:19.400Z,0.00
2023-07-08T02:14:19.716Z,0.00
2023-07-08T02:15:19.891Z,0.00
2023-07-08T02:16:20.361Z,0.00
2023-07-08T02:17:20.454Z,0.00
2023-07-08T02:18:20.676Z,0.00
2023-07-08T02:19:20.846Z,0.00
2023-07-08T02:20:21.158Z,0.00
2023-07-08T02:21:21.399Z,0.00
2023-07-08T02:22:21.611Z,0.00
2023-07-08T02:23:21.802Z,0.00
2023-07-08T02:24:22.132Z,0.00
2023-07-08T02:25:22.354Z,0.00
2023-07-08T02:26:22.584Z,0.00
2023-07-08T02:27:22.832Z,0.00
2023-07-08T02:28:30.347Z,0.00
2023-07-08T02:29:23.396Z,0.00
2023-07-08T02:30:23.707Z,0.00
2023-07-08T02:31:23.937Z,0.00
2023-07-08T02:32:24.228Z,0.00
2023-07-08T02:33:24.418Z,0.00
2023-07-08T02:34:24.727Z,0.00
2023-07-08T02:35:24.917Z,0.00
2023-07-08T02:36:25.241Z,0.00
2023-07-08T02:37:25.441Z,0.00
2023-07-08T02:38:25.748Z,0.00
2023-07-08T02:39:25.938Z,0.00
2023-07-08T02:40:26.283Z,0.00
2023-07-08T02:41:26.486Z,0.00
2023-07-08T02:42:26.709Z,0.00
2023-07-08T02:43:26.908Z,0.00
2023-07-08T02:44:27.218Z,0.00
2023-07-08T02:45:27.478Z,0.00
2023-07-08T02:46:27.683Z,0.00
2023-07-08T02:47:27.900Z,5.62
2023-07-08T02:48:28.208Z,5.62
2023-07-08T02:49:28.395Z,5.62
2023-07-08T02:50:28.593Z,5.62
2023-07-08T02:51:28.916Z,5.62
2023-07-08T02:52:29.071Z,5.62
2023-07-08T02:53:29.294Z,5.62
2023-07-08T02:54:29.472Z,5.62
2023-07-08T02:55:29.671Z,5.62
2023-07-08T02:56:30.011Z,5.62
2023-07-08T02:57:30.194Z,11.25
2023-07-08T02:58:30.525Z,11.25
2023-07-08T02:59:30.723Z,11.25
2023-07-08T03:00:30.936Z,11.25
2023-07-08T03:01:31.170Z,11.25
2023-07-08T03:02:31.371Z,11.25
2023-07-08T03:03:31.609Z,16.88
2023-07-08T03:04:31.830Z,16.88
2023-07-08T03:05:32.112Z,16.88
2023-07-08T03:06:32.289Z,16.88
2023-07-08T03:07:32.481Z,16.88
2023-07-08T03:08:32.676Z,16.88
2023-07-08T03:09:33.030Z,22.50
2023-07-08T03:10:33.232Z,22.50
2023-07-08T03:11:33.569Z,22.50
2023-07-08T03:12:33.783Z,22.50
2023-07-08T03:13:34.033Z,28.12
2023-07-08T03:14:34.210Z,28.12
2023-07-08T03:15:34.415Z,28.12
2023-07-08T03:16:34.626Z,28.12
2023-07-08T03:17:34.854Z,33.75
2023-07-08T03:18:35.022Z,33.75
2023-07-08T03:19:35.342Z,33.75
2023-07-08T03:20:35.532Z,33.75
2023-07-08T03:21:35.868Z,39.38
2023-07-08T03:22:36.061Z,39.38
2023-07-08T03:23:36.388Z,39.38
2023-07-08T03:24:36.658Z,39.38
2023-07-08T03:25:36.982Z,45.00
2023-07-08T03:26:37.277Z,45.00
2023-07-08T03:27:37.493Z,45.00
2023-07-08T03:28:37.671Z,45.00
2023-07-08T03:29:37.983Z,50.62
2023-07-08T03:30:38.203Z,50.62
2023-07-08T03:31:38.463Z,50.62
2023-07-08T03:32:38.673Z,50.62
2023-07-08T03:33:38.822Z,56.25
2023-07-08T03:34:39.018Z,56.25
2023-07-08T03:35:39.316Z,56.25
2023-07-08T03:36:39.521Z,56.25
2023-07-08T03:37:39.738Z,56.25
2023-07-08T03:38:39.916Z,61.88
2023-07-08T03:39:40.246Z,61.88
2023-07-08T03:40:40.431Z,61.88
2023-07-08T03:41:40.839Z,61.88
2023-07-08T03:42:41.001Z,67.50
2023-07-08T03:43:41.326Z,67.50
2023-07-08T03:44:41.539Z,67.50
2023-07-08T03:45:41.742Z,67.50
2023-07-08T03:46:42.009Z,67.50
2023-07-08T03:47:42.293Z,73.12
2023-07-08T03:48:42.632Z,73.12
2023-07-08T03:49:42.770Z,73.12
2023-07-08T03:50:42.980Z,73.12
2023-07-08T03:51:43.210Z,78.75
2023-07-08T03:52:43.414Z,78.75
2023-07-08T03:53:43.626Z,78.75
2023-07-08T03:54:43.817Z,78.75
2023-07-08T03:55:44.144Z,78.75
2023-07-08T03:56:44.345Z,84.38
2023-07-08T03:57:44.557Z,84.38
2023-07-08T03:58:44.757Z,84.38
2023-07-08T03:59:44.966Z,84.38
2023-07-08T04:00:45.161Z,90.00
2023-07-08T04:01:45.415Z,90.00
2023-07-08T04:02:45.608Z,90.00
2023-07-08T04:03:45.898Z,90.00
2023-07-08T04:04:46.068Z,90.00
2023-07-08T04:05:46.384Z,95.62
2023-07-08T04:06:46.714Z,95.62
2023-07-08T04:07:46.797Z,95.62
2023-07-08T04:08:46.990Z,95.62
2023-07-08T04:09:47.200Z,101.25
2023-07-08T04:10:47.381Z,101.25
2023-07-08T04:11:47.697Z,101.25
2023-07-08T04:12:47.889Z,101.25
2023-07-08T04:13:48.311Z,101.25
2023-07-08T04:14:48.403Z,106.88
2023-07-08T04:15:48.597Z,106.88
2023-07-08T04:16:48.863Z,106.88
2023-07-08T04:17:49.072Z,106.88
2023-07-08T04:18:49.256Z,106.88
2023-07-08T04:19:49.440Z,112.50
2023-07-08T04:21:49.982Z,112.50
2023-07-08T04:22:50.182Z,112.50
2023-07-08T04:23:50.381Z,112.50
2023-07-08T04:24:50.577Z,118.12
2023-07-08T04:25:50.877Z,118.12
2023-07-08T04:26:51.099Z,118.12
2023-07-08T04:27:51.315Z,118.12
2023-07-08T04:28:51.607Z,123.75
2023-07-08T04:29:52.790Z,123.75
2023-07-08T04:30:52.157Z,123.75
2023-07-08T04:31:52.328Z,123.75
2023-07-08T04:32:52.616Z,123.75
2023-07-08T04:33:52.719Z,123.75
2023-07-08T04:34:52.911Z,129.38
2023-07-08T04:35:53.107Z,129.38
2023-07-08T04:36:53.325Z,129.38
2023-07-08T04:37:53.544Z,129.38
2023-07-08T04:38:53.717Z,129.38
2023-07-08T04:39:54.030Z,135.00
2023-07-08T04:40:54.221Z,135.00
2023-07-08T04:41:54.565Z,135.00
2023-07-08T04:42:54.747Z,135.00
2023-07-08T04:43:54.979Z,135.00
2023-07-08T04:44:55.201Z,140.62
2023-07-08T04:45:55.377Z,140.62
2023-07-08T04:46:55.638Z,135.00
2023-07-08T04:47:55.806Z,135.00
2023-07-08T04:48:56.014Z,135.00
2023-07-08T04:49:56.308Z,135.00
2023-07-08T04:50:56.498Z,140.62
2023-07-08T04:51:56.746Z,140.62
2023-07-08T04:52:56.905Z,140.62
2023-07-08T04:53:57.212Z,140.62
2023-07-08T04:54:57.400Z,140.62
2023-07-08T04:55:57.600Z,140.62
2023-07-08T04:56:57.759Z,146.25
2023-07-08T04:57:57.942Z,146.25
2023-07-08T04:58:58.222Z,146.25
2023-07-08T04:59:58.404Z,146.25
2023-07-08T05:00:58.731Z,146.25
2023-07-08T05:01:58.929Z,146.25
2023-07-08T05:02:59.105Z,151.88
2023-07-08T05:03:59.298Z,151.88
2023-07-08T05:04:59.463Z,151.88
2023-07-08T05:05:59.654Z,151.88
2023-07-08T05:06:59.834Z,151.88
2023-07-08T05:08:00.031Z,151.88
2023-07-08T05:09:01.163Z,157.50
2023-07-08T05:10:00.457Z,157.50
2023-07-08T05:11:01.012Z,157.50
2023-07-08T05:12:00.858Z,157.50
2023-07-08T05:13:01.051Z,157.50
2023-07-08T05:14:01.280Z,157.50
2023-07-08T05:15:01.438Z,163.12
2023-07-08T05:16:01.640Z,163.12
2023-07-08T05:17:01.787Z,163.12
2023-07-08T05:18:02.021Z,163.12
2023-07-08T05:19:02.205Z,163.12
2023-07-08T05:20:02.376Z,168.75
2023-07-08T05:21:02.580Z,168.75
2023-07-08T05:22:02.844Z,168.75
2023-07-08T05:23:03.012Z,168.75
2023-07-08T05:24:03.334Z,168.75
2023-07-08T05:25:03.584Z,168.75
2023-07-08T05:26:03.894Z,174.38
2023-07-08T05:27:04.056Z,174.38
2023-07-08T05:28:04.365Z,174.38
2023-07-08T05:29:04.550Z,174.38
2023-07-08T05:30:04.759Z,174.38
2023-07-08T05:31:04.944Z,174.38
2023-07-08T05:32:05.165Z,180.00
2023-07-08T05:33:05.384Z,180.00
2023-07-08T05:34:05.539Z,180.00
2023-07-08T05:36:05.976Z,180.00
2023-07-08T05:37:06.146Z,180.00
2023-07-08T05:38:06.448Z,185.62
2023-07-08T05:39:06.624Z,185.62
2023-07-08T05:40:06.958Z,185.62
2023-07-08T05:41:07.139Z,185.62
2023-07-08T05:42:07.309Z,185.62
2023-07-08T05:43:07.481Z,185.62
2023-07-08T05:44:07.748Z,191.25
2023-07-08T05:45:07.988Z,191.25
2023-07-08T05:46:12.872Z,191.25
2023-07-08T05:47:08.421Z,191.25
2023-07-08T05:48:08.754Z,191.25
2023-07-08T05:49:08.866Z,191.25
2023-07-08T05:50:09.174Z,196.88
2023-07-08T05:51:09.358Z,196.88
2023-07-08T05:52:09.553Z,196.88
2023-07-08T05:53:09.711Z,202.50
2023-07-08T05:54:10.019Z,208.12
2023-07-08T05:55:10.194Z,208.12
2023-07-08T05:56:10.367Z,213.75
2023-07-08T05:57:10.577Z,219.38
2023-07-08T05:58:22.073Z,219.38
2023-07-08T05:59:12.095Z,219.38
2023-07-08T06:00:11.284Z,225.00
2023-07-08T06:01:11.489Z,225.00
2023-07-08T06:02:11.732Z,230.62
2023-07-08T06:03:11.926Z,236.25
2023-07-08T06:04:12.181Z,236.25
2023-07-08T06:05:12.267Z,236.25
2023-07-08T06:06:12.552Z,241.88
2023-07-08T06:07:12.720Z,247.50
2023-07-08T06:08:12.900Z,253.12
2023-07-08T06:09:13.058Z,253.12
2023-07-08T06:10:13.221Z,258.75
2023-07-08T06:11:13.379Z,258.75
2023-07-08T06:12:13.555Z,264.38
2023-07-08T06:13:13.715Z,264.38
2023-07-08T06:14:13.912Z,270.00
2023-07-08T06:15:14.037Z,270.00
2023-07-08T06:16:18.019Z,275.62
2023-07-08T06:17:15.652Z,275.62
2023-07-08T06:18:14.743Z,281.25
2023-07-08T06:19:14.893Z,281.25
2023-07-08T06:20:15.069Z,281.25
2023-07-08T06:21:15.230Z,286.88
2023-07-08T06:23:15.606Z,292.50
2023-07-08T06:24:15.784Z,292.50
2023-07-08T06:25:15.938Z,292.50
2023-07-08T06:26:16.211Z,292.50
2023-07-08T06:27:16.378Z,298.12
2023-07-08T06:28:16.658Z,309.38
2023-07-08T06:29:16.801Z,309.38
2023-07-08T06:30:16.960Z,315.00
2023-07-08T06:31:17.168Z,320.62
2023-07-08T06:32:17.258Z,326.25
2023-07-08T06:33:17.421Z,331.88
2023-07-08T06:34:17.569Z,337.50
2023-07-08T06:35:17.736Z,348.75
2023-07-08T06:36:17.878Z,354.38
2023-07-08T06:37:18.023Z,354.38
2023-07-08T06:38:18.196Z,348.75
2023-07-08T06:39:18.337Z,343.12
2023-07-08T06:40:18.766Z,343.12
2023-07-08T06:41:18.801Z,360.00
2023-07-08T06:42:19.042Z,382.50
2023-07-08T06:43:19.188Z,416.25
2023-07-08T06:44:19.351Z,455.62
2023-07-08T06:45:19.510Z,455.62
2023-07-08T06:46:19.664Z,489.38
2023-07-08T06:47:19.797Z,495.00
2023-07-08T06:48:20.078Z,444.38
2023-07-08T06:49:20.218Z,393.75
2023-07-08T06:50:20.392Z,393.75
2023-07-08T06:51:20.527Z,416.25
2023-07-08T06:52:20.656Z,472.50
2023-07-08T06:53:20.805Z,523.12
2023-07-08T06:54:20.955Z,849.38
2023-07-08T06:55:21.072Z,1119.38
2023-07-08T06:56:21.352Z,1260.00
2023-07-08T06:57:21.476Z,1130.62
2023-07-08T06:58:21.732Z,838.12
2023-07-08T06:59:21.871Z,545.62
2023-07-08T07:00:22.006Z,466.88
2023-07-08T07:01:22.174Z,455.62
2023-07-08T07:02:22.332Z,658.12
2023-07-08T07:03:22.415Z,888.75
2023-07-08T07:04:22.540Z,714.38
2023-07-08T07:05:23.786Z,652.50
2023-07-08T07:06:22.861Z,658.12
2023-07-08T07:07:22.982Z,753.75
2023-07-08T07:08:23.104Z,877.50
2023-07-08T07:09:23.259Z,871.88
2023-07-08T07:10:23.363Z,826.88
2023-07-08T07:11:23.473Z,703.12
2023-07-08T07:12:23.629Z,590.62
2023-07-08T07:13:23.789Z,579.38
2023-07-08T07:15:24.011Z,495.00
2023-07-08T07:16:24.182Z,506.25
2023-07-08T07:17:24.373Z,500.62
2023-07-08T07:18:24.420Z,517.50
2023-07-08T07:19:24.535Z,545.62
2023-07-08T07:20:24.768Z,613.12
2023-07-08T07:21:24.881Z,697.50
2023-07-08T07:22:25.010Z,843.75
2023-07-08T07:23:25.121Z,1035.00
2023-07-08T07:24:25.225Z,1383.75
2023-07-08T07:25:25.349Z,1327.50
2023-07-08T07:26:25.441Z,1147.50
2023-07-08T07:27:25.569Z,663.75
2023-07-08T07:28:25.691Z,573.75
2023-07-08T07:29:25.811Z,551.25
2023-07-08T07:30:26.010Z,551.25
2023-07-08T07:31:26.157Z,646.88
2023-07-08T07:32:26.254Z,1063.12
2023-07-08T07:33:26.336Z,1681.88
2023-07-08T07:34:26.437Z,2070.00
2023-07-08T07:35:26.537Z,1800.00
2023-07-08T07:36:26.633Z,1423.12
2023-07-08T07:37:26.758Z,815.62
2023-07-08T07:38:26.857Z,731.25
2023-07-08T07:39:26.945Z,708.75
2023-07-08T07:40:27.045Z,686.25
2023-07-08T07:41:27.153Z,680.62
2023-07-08T07:42:27.251Z,708.75
2023-07-08T07:43:27.362Z,843.75
2023-07-08T07:44:27.450Z,1057.50
2023-07-08T07:45:27.547Z,1811.25
2023-07-08T07:46:27.683Z,2390.62
2023-07-08T07:47:30.331Z,2542.50
2023-07-08T07:48:27.855Z,2244.38
2023-07-08T07:49:27.959Z,1473.75
2023-07-08T07:50:28.057Z,905.62
2023-07-08T07:51:28.141Z,793.12
2023-07-08T07:52:28.238Z,703.12
2023-07-08T07:53:28.351Z,691.88
2023-07-08T07:54:28.444Z,680.62
2023-07-08T07:55:28.546Z,686.25
2023-07-08T07:56:28.612Z,725.62
2023-07-08T07:57:28.731Z,776.25
2023-07-08T07:58:28.826Z,731.25
2023-07-08T07:59:28.907Z,1209.38
2023-07-08T08:00:28.972Z,1569.38
2023-07-08T08:01:29.075Z,1890.00
2023-07-08T08:02:29.150Z,1980.00
2023-07-08T08:03:29.276Z,1558.12
2023-07-08T08:04:29.347Z,1603.12
2023-07-08T08:05:29.553Z,1198.12
2023-07-08T08:06:29.592Z,855.00
2023-07-08T08:07:29.682Z,708.75
2023-07-08T08:08:29.770Z,669.38
2023-07-08T08:09:29.875Z,652.50
2023-07-08T08:10:29.958Z,675.00
2023-07-08T08:11:30.066Z,708.75
2023-07-08T08:12:37.599Z,753.75
2023-07-08T08:13:31.248Z,838.12
2023-07-08T08:14:30.308Z,1023.75
2023-07-08T08:15:30.365Z,1153.12
2023-07-08T08:16:30.449Z,1428.75
2023-07-08T08:17:30.522Z,1496.25
2023-07-08T08:18:30.569Z,1563.75
2023-07-08T08:19:30.659Z,1687.50
2023-07-08T08:20:30.726Z,1732.50
2023-07-08T08:21:30.796Z,1856.25
2023-07-08T08:22:30.914Z,2418.75
2023-07-08T08:23:30.993Z,2981.25
2023-07-08T08:24:31.048Z,3189.38
2023-07-08T08:25:31.107Z,3476.25
2023-07-08T08:26:31.163Z,3352.50
2023-07-08T08:27:31.236Z,3391.88
2023-07-08T08:28:31.284Z,4089.38
2023-07-08T08:29:31.347Z,3948.75
2023-07-08T08:30:31.490Z,4010.62
2023-07-08T08:31:31.470Z,4246.88
2023-07-08T08:32:31.563Z,4123.12
2023-07-08T08:33:31.581Z,4196.25
2023-07-08T08:34:31.627Z,4095.00
2023-07-08T08:35:31.694Z,4156.88
2023-07-08T08:36:31.749Z,4044.38
2023-07-08T08:37:31.817Z,4185.00
2023-07-08T08:38:31.894Z,4449.38
2023-07-08T08:39:31.940Z,4387.50
2023-07-08T08:40:32.035Z,4123.12
2023-07-08T08:41:32.067Z,4230.00
2023-07-08T08:42:32.117Z,4348.12
2023-07-08T08:43:32.168Z,4466.25
2023-07-08T08:44:32.222Z,4331.25
2023-07-08T08:45:32.278Z,4201.88
2023-07-08T08:46:32.355Z,4336.88
2023-07-08T08:47:32.434Z,4449.38
2023-07-08T08:48:32.453Z,4584.38
2023-07-08T08:49:32.520Z,4685.62
2023-07-08T08:50:32.569Z,4753.12
2023-07-08T08:51:32.610Z,4786.88
2023-07-08T08:52:32.673Z,4927.50
2023-07-08T08:53:32.713Z,5163.75
2023-07-08T08:54:32.747Z,5225.62
2023-07-08T08:55:32.794Z,5130.00
2023-07-08T08:56:32.826Z,4758.75
2023-07-08T08:57:32.874Z,4590.00
2023-07-08T08:58:32.917Z,4747.50
2023-07-08T08:59:32.949Z,4775.62
2023-07-08T09:00:33.024Z,4865.62
2023-07-08T09:01:33.881Z,5034.38
2023-07-08T09:02:33.145Z,4995.00
2023-07-08T09:03:33.178Z,4888.12
2023-07-08T09:04:33.185Z,5141.25
2023-07-08T09:05:33.230Z,4989.38
2023-07-08T09:06:33.249Z,4730.62
2023-07-08T09:07:33.290Z,4781.25
2023-07-08T09:08:33.341Z,4539.38
2023-07-08T09:09:33.401Z,4471.88
2023-07-08T09:10:33.422Z,4730.62
2023-07-08T09:11:33.456Z,4860.00
2023-07-08T09:12:33.560Z,4674.38
2023-07-08T09:13:33.663Z,4657.50
2023-07-08T09:14:33.685Z,4612.50
2023-07-08T09:15:33.821Z,4629.38
2023-07-08T09:16:33.977Z,5045.62
2023-07-08T09:17:37.122Z,5062.50
2023-07-08T09:18:33.871Z,4730.62
2023-07-08T09:19:33.940Z,4635.00
2023-07-08T09:20:33.957Z,4460.62
2023-07-08T09:21:33.978Z,4269.38
2023-07-08T09:22:34.024Z,4275.00
2023-07-08T09:23:34.072Z,4258.12
2023-07-08T09:24:34.096Z,4258.12
2023-07-08T09:25:34.094Z,4320.00
2023-07-08T09:26:34.116Z,4235.62
2023-07-08T09:27:34.147Z,4151.25
2023-07-08T09:28:34.153Z,4185.00
2023-07-08T09:29:34.176Z,4162.50
2023-07-08T09:30:34.184Z,4156.88
2023-07-08T09:31:34.250Z,4106.25
2023-07-08T09:32:34.258Z,4218.75
2023-07-08T09:33:34.505Z,4455.00
2023-07-08T09:34:34.389Z,4404.38
2023-07-08T09:35:34.425Z,4336.88
2023-07-08T09:36:34.428Z,4567.50
2023-07-08T09:37:34.516Z,4730.62
2023-07-08T09:38:34.439Z,4848.75
2023-07-08T09:39:34.454Z,5028.75
2023-07-08T09:40:34.478Z,5124.38
2023-07-08T09:41:34.515Z,5124.38
2023-07-08T09:42:34.526Z,5051.25
2023-07-08T09:43:34.540Z,4961.25
2023-07-08T09:44:34.551Z,4747.50
2023-07-08T09:45:34.563Z,4629.38
2023-07-08T09:46:34.618Z,4803.75
2023-07-08T09:47:34.782Z,4882.50
2023-07-08T09:48:34.675Z,4933.12
2023-07-08T09:49:34.710Z,5028.75
2023-07-08T09:50:34.717Z,5107.50
2023-07-08T09:51:34.722Z,5079.38
2023-07-08T09:52:34.766Z,5141.25
2023-07-08T09:53:34.769Z,5281.88
2023-07-08T09:54:34.756Z,5270.62
2023-07-08T09:55:34.759Z,5096.25
2023-07-08T09:56:34.746Z,4916.25
2023-07-08T09:57:34.773Z,4696.88
2023-07-08T09:58:34.769Z,4606.88
2023-07-08T09:59:34.750Z,4820.62
2023-07-08T10:00:34.744Z,4966.88
2023-07-08T10:01:34.736Z,5006.25
2023-07-08T10:02:34.819Z,5242.50
2023-07-08T10:03:34.831Z,5467.50
2023-07-08T10:04:34.920Z,5332.50
2023-07-08T10:05:34.881Z,5242.50
2023-07-08T10:06:34.889Z,5096.25
2023-07-08T10:07:34.867Z,4944.38
2023-07-08T10:08:34.834Z,5034.38
2023-07-08T10:09:34.816Z,5073.75
2023-07-08T10:10:34.790Z,5304.38
2023-07-08T10:11:34.784Z,5326.88
2023-07-08T10:12:34.768Z,5118.75
2023-07-08T10:13:34.777Z,5203.12
2023-07-08T10:14:34.780Z,5175.00
2023-07-08T10:15:34.761Z,5068.12
2023-07-08T10:16:34.847Z,5017.50
2023-07-08T10:17:34.772Z,4933.12
2023-07-08T10:18:34.747Z,4955.62
2023-07-08T10:19:34.781Z,5321.25
2023-07-08T10:20:34.743Z,5146.88
2023-07-08T10:21:34.738Z,5017.50
2023-07-08T10:22:34.765Z,5191.88
2023-07-08T10:23:34.761Z,5056.88
2023-07-08T10:24:34.747Z,5248.12
2023-07-08T10:25:34.762Z,5321.25
2023-07-08T10:26:34.736Z,5113.12
2023-07-08T10:27:34.766Z,4860.00
2023-07-08T10:28:34.737Z,4573.12
2023-07-08T10:29:34.771Z,4381.88
2023-07-08T10:30:34.756Z,4241.25
2023-07-08T10:31:34.810Z,4145.62
2023-07-08T10:32:34.783Z,4336.88
2023-07-08T10:33:34.760Z,4348.12
2023-07-08T10:34:34.759Z,4258.12
2023-07-08T10:35:36.359Z,4438.12
2023-07-08T10:36:34.701Z,4680.00
2023-07-08T10:37:34.708Z,4798.12
2023-07-08T10:38:34.728Z,4657.50
2023-07-08T10:39:34.713Z,4685.62
2023-07-08T10:40:34.738Z,4944.38
2023-07-08T10:41:34.762Z,5045.62
2023-07-08T10:42:34.803Z,5130.00
2023-07-08T10:43:34.801Z,5698.12
2023-07-08T10:44:34.783Z,5968.12
2023-07-08T10:45:34.796Z,5422.50
2023-07-08T10:46:34.783Z,4972.50
2023-07-08T10:47:34.778Z,4944.38
2023-07-08T10:48:34.765Z,5113.12
2023-07-08T10:49:34.752Z,4955.62
2023-07-08T10:50:34.733Z,5096.25
2023-07-08T10:51:34.743Z,5276.25
2023-07-08T10:52:34.759Z,5045.62
2023-07-08T10:53:34.760Z,4916.25
2023-07-08T10:54:34.753Z,4848.75
2023-07-08T10:55:34.765Z,4854.38
2023-07-08T10:56:34.752Z,4860.00
2023-07-08T10:57:34.752Z,4983.75
2023-07-08T10:58:34.742Z,4950.00
2023-07-08T10:59:34.729Z,4792.50
2023-07-08T11:00:34.734Z,4809.38
2023-07-08T11:01:34.815Z,5000.62
2023-07-08T11:02:34.795Z,4916.25
2023-07-08T11:03:34.816Z,4888.12
2023-07-08T11:04:34.776Z,5040.00
2023-07-08T11:05:34.771Z,5326.88
2023-07-08T11:06:34.754Z,5197.50
2023-07-08T11:07:34.761Z,4927.50
2023-07-08T11:08:34.765Z,5045.62
2023-07-08T11:09:34.770Z,5017.50
2023-07-08T11:10:36.601Z,4950.00
2023-07-08T11:11:34.792Z,4775.62
2023-07-08T11:12:34.819Z,4629.38
2023-07-08T11:13:34.854Z,4803.75
2023-07-08T11:14:34.849Z,4927.50
2023-07-08T11:15:34.842Z,5068.12
2023-07-08T11:16:36.859Z,5135.62
2023-07-08T11:17:34.962Z,5056.88
2023-07-08T11:18:34.939Z,5158.12
2023-07-08T11:19:34.948Z,5118.75
2023-07-08T11:20:34.958Z,4995.00
2023-07-08T11:21:35.033Z,4995.00
2023-07-08T11:22:35.040Z,4961.25
2023-07-08T11:23:35.102Z,4651.88
2023-07-08T11:24:35.115Z,4668.75
2023-07-08T11:25:35.118Z,4860.00
2023-07-08T11:26:35.168Z,4781.25
2023-07-08T11:27:35.139Z,4865.62
2023-07-08T11:28:35.153Z,5118.75
2023-07-08T11:29:35.159Z,5152.50
2023-07-08T11:30:35.164Z,5056.88
2023-07-08T11:31:35.345Z,4905.00
2023-07-08T11:32:35.353Z,5028.75
2023-07-08T11:33:36.285Z,4455.00
2023-07-08T11:34:35.329Z,2323.12
2023-07-08T11:35:35.349Z,945.00
2023-07-08T11:36:35.384Z,765.00
2023-07-08T11:37:35.426Z,720.00
2023-07-08T11:38:35.475Z,691.88
2023-07-08T11:39:35.481Z,680.62
2023-07-08T11:40:35.455Z,669.38
2023-07-08T11:41:35.492Z,658.12
2023-07-08T11:42:35.520Z,646.88
2023-07-08T11:43:35.631Z,641.25
2023-07-08T11:44:37.785Z,641.25
2023-07-08T11:45:35.537Z,635.62
2023-07-08T11:46:35.563Z,630.00
2023-07-08T11:47:35.635Z,624.38
2023-07-08T11:48:35.698Z,624.38
2023-07-08T11:49:35.702Z,618.75
2023-07-08T11:50:35.713Z,618.75
2023-07-08T11:51:35.731Z,613.12
2023-07-08T11:52:35.757Z,613.12
2023-07-08T11:53:35.893Z,607.50
2023-07-08T11:54:35.775Z,607.50
2023-07-08T11:55:35.790Z,607.50
2023-07-08T11:56:35.799Z,601.88
2023-07-08T11:57:35.823Z,601.88
2023-07-08T11:58:35.844Z,601.88
2023-07-08T11:59:35.891Z,596.25
2023-07-08T12:00:35.914Z,596.25
2023-07-08T12:01:36.017Z,596.25
2023-07-08T12:02:35.950Z,590.62
2023-07-08T12:03:35.972Z,585.00
2023-07-08T12:04:35.988Z,579.38
2023-07-08T12:05:35.998Z,573.75
2023-07-08T12:06:36.026Z,573.75
2023-07-08T12:07:36.066Z,573.75
2023-07-08T12:08:36.059Z,568.12
2023-07-08T12:09:36.077Z,568.12
2023-07-08T12:10:36.128Z,562.50
2023-07-08T12:11:36.204Z,562.50
2023-07-08T12:12:36.236Z,562.50
2023-07-08T12:13:36.276Z,562.50
2023-07-08T12:14:36.289Z,556.88
2023-07-08T12:15:36.307Z,556.88
2023-07-08T12:16:36.354Z,556.88
2023-07-08T12:17:36.398Z,556.88
2023-07-08T12:18:36.376Z,556.88
2023-07-08T12:19:36.376Z,556.88
2023-07-08T12:20:36.405Z,556.88
2023-07-08T12:21:36.421Z,551.25
2023-07-08T12:22:36.488Z,551.25
2023-07-08T12:23:36.496Z,551.25
2023-07-08T12:24:37.224Z,551.25
2023-07-08T12:25:36.689Z,545.62
2023-07-08T12:26:36.710Z,545.62
2023-07-08T12:27:36.763Z,551.25
2023-07-08T12:28:36.798Z,545.62
2023-07-08T12:29:36.838Z,540.00
2023-07-08T12:30:36.894Z,540.00
2023-07-08T12:31:37.019Z,540.00
2023-07-08T12:32:36.979Z,540.00
2023-07-08T12:33:37.032Z,540.00
2023-07-08T12:34:37.940Z,540.00
2023-07-08T12:35:37.078Z,534.38
2023-07-08T12:36:37.120Z,534.38
2023-07-08T12:37:37.166Z,534.38
2023-07-08T12:38:37.225Z,534.38
2023-07-08T12:39:37.250Z,534.38
2023-07-08T12:40:37.308Z,534.38